Oroso, Spain
Current Conditions -  °F | °C
As of 1:00 AM on Saturday 22 Nov 2014 (Local Time) from LEST Reporting Station
Rain Showers Rain Showers  
Wind Chill: 55°   Ceiling: 100
Heat Index: 55°   Visibility: 1.8mi
Dew Point: 55°   Wind: 3mph
Humidity: 100%   Direction: 160°SSE
Pressure: 29.91"   Gusts: NA
Location:  42.98°N, 8.43°W
Report Text: LEST 220000Z 16003KT 3000 SHRA BKN001 SCT020TCU BKN030 13/13 Q1013 TEMPO 2500 SHRA BKN025TCU
Loading
Personal Weather Stations






























Interactive Weather Map New forecast layout! Learn more

10-Day Weather Forecast

Advertisements
Track Severe Weather on mobile